« Back
NWS Peachtree City, Ga » Text Product » AHN Terminal Aerodrome Forecast


Printer-friendly Version
Current Version              Previous Versions:   1  2  3  4  5  6  7  8  9  

Terminal Aerodrome Forecast

924
FTAK31 PAJN 312300
TAFAHN
TAF
PAHN 312323Z 0100/0124 09008G18KT P6SM -SHRA SCT012 OVC025
     FM010300 09007KT P6SM VCSH BKN035 OVC050
     FM010600 31006KT P6SM VCSH BKN040 BKN100
     FM010900 31006KT P6SM VCSH BKN050
     FM011500 31008KT P6SM BKN100
     FM012100 09008KT P6SM SCT050 BKN100
      AMD LTD TO CLD VIS AND WIND=



USA.gov is the U.S. government's official web portal to all federal, state and local government web resources and services.